Time;durP1;ratioP1;P1;durP2;ratioP2;P2;SDS_P1;SDS_P2;PMS_P1;PMS_P2;Temp;Humidity;BMP_temperature;BMP_pressure;BME280_temperature;BME280_humidity;BME280_pressure;Samples;Min_cycle;Max_cycle;Signal;HPM_P1;HPM_P2
2023/10/09 00:02:09;;;;;;;25.55;13.40;;;;;;;-146.27;83.61;81930.22;5017181;28;20538;-68
2023/10/09 00:04:37;;;;;;;21.13;12.73;;;;;;;-146.27;83.66;81966.38;5025967;28;20067;-67
2023/10/09 00:07:07;;;;;;;21.48;13.10;;;;;;;-146.27;83.79;81956.34;5021558;28;20034;-68
2023/10/09 00:09:41;;;;;;;26.23;13.30;;;;;;;-146.27;83.80;81960.34;5024132;28;20036;-67
2023/10/09 00:12:10;;;;;;;22.95;13.18;;;;;;;-146.27;84.06;81970.41;5019990;28;20492;-68
2023/10/09 00:14:40;;;;;;;23.88;11.65;;;;;;;-146.27;84.15;81956.34;5022577;28;20041;-67
2023/10/09 00:19:37;;;;;;;23.00;11.88;;;;;;;-146.27;84.09;81888.03;5027350;28;20026;-68
2023/10/09 00:22:25;;;;;;;23.80;11.63;;;;;;;-146.27;84.31;81920.19;5013617;28;20033;-67
2023/10/09 00:24:50;;;;;;;19.63;10.38;;;;;;;-146.27;84.21;81886.03;5024840;28;20038;-68
2023/10/09 00:27:23;;;;;;;19.42;10.77;;;;;;;-146.27;84.38;81950.31;5015947;28;20045;-68
2023/10/09 00:29:49;;;;;;;18.48;9.82;;;;;;;-146.27;84.10;81869.97;5020079;28;20050;-68
2023/10/09 00:32:26;;;;;;;16.65;10.30;;;;;;;-146.27;84.13;81886.03;5026795;28;20100;-67
2023/10/09 00:34:52;;;;;;;17.50;10.02;;;;;;;-146.27;84.07;81857.91;5029947;28;20029;-68
2023/10/09 00:37:22;;;;;;;20.85;9.52;;;;;;;-146.27;84.01;81861.94;5026538;28;20490;-68
2023/10/09 00:39:55;;;;;;;16.67;8.73;;;;;;;-146.27;84.15;81873.97;5024838;28;20018;-68
2023/10/09 00:42:33;;;;;;;25.02;8.57;;;;;;;-146.27;84.51;81833.81;5028077;28;20533;-67
2023/10/09 00:45:07;;;;;;;18.30;8.55;;;;;;;-146.27;84.56;81825.78;5012814;28;20049;-68
2023/10/09 00:47:34;;;;;;;14.77;8.10;;;;;;;-146.27;84.21;81799.66;5017735;28;20529;-69
2023/10/09 00:52:49;;;;;;;19.50;7.80;;;;;;;-146.27;83.96;81813.72;5025055;28;20076;-68
2023/10/09 00:55:21;;;;;;;15.25;6.85;;;;;;;-146.27;83.66;81757.50;5021295;28;20109;-68
2023/10/09 00:57:59;;;;;;;14.70;7.47;;;;;;;-146.27;83.63;81743.44;5022042;28;20486;-70
2023/10/09 01:00:32;;;;;;;14.65;8.25;;;;;;;-146.27;83.50;81697.22;5019679;28;20028;-70
2023/10/09 01:05:57;;;;;;;14.73;6.28;;;;;;;-146.27;83.25;81709.28;5025710;28;20026;-70
2023/10/09 01:08:32;;;;;;;11.38;6.22;;;;;;;-146.27;83.01;81701.25;5021694;28;20109;-70
2023/10/09 01:11:08;;;;;;;14.80;6.03;;;;;;;-146.27;83.23;81709.28;5029269;28;20469;-71
2023/10/09 01:16:18;;;;;;;16.63;5.72;;;;;;;-146.27;82.85;81612.88;5026660;28;20046;-70
2023/10/09 01:18:44;;;;;;;14.35;5.38;;;;;;;-146.27;82.66;81681.16;5021748;28;20029;-70
2023/10/09 01:21:14;;;;;;;12.48;5.40;;;;;;;-146.27;82.54;81641.00;5016049;28;20746;-71
2023/10/09 01:24:03;;;;;;;9.18;4.93;;;;;;;-146.27;82.27;81657.06;5015781;28;20054;-70
2023/10/09 01:26:34;;;;;;;14.73;5.20;;;;;;;-146.27;82.78;81628.94;5019979;28;20038;-70
2023/10/09 01:29:00;;;;;;;11.93;4.82;;;;;;;-146.27;82.55;81663.09;5023431;28;20036;-70
2023/10/09 01:31:26;;;;;;;20.27;5.47;;;;;;;-146.27;82.08;81612.88;5031983;28;20033;-70
2023/10/09 01:33:59;;;;;;;16.95;5.10;;;;;;;-146.27;81.93;81632.97;5026142;28;20022;-70
2023/10/09 01:36:31;;;;;;;12.60;4.22;;;;;;;-146.27;81.95;81636.97;5021759;28;20049;-70
2023/10/09 01:39:09;;;;;;;14.13;5.10;;;;;;;-146.27;81.77;81570.69;5026010;28;20025;-70
2023/10/09 01:41:38;;;;;;;8.85;4.18;;;;;;;-146.27;81.27;81552.63;5024665;28;20025;-70
2023/10/09 01:44:10;;;;;;;14.50;4.72;;;;;;;-146.27;81.08;81558.66;5022299;28;20485;-70
2023/10/09 01:46:35;;;;;;;11.95;4.78;;;;;;;-146.27;81.22;81564.69;5029137;28;20458;-69
2023/10/09 01:49:08;;;;;;;11.13;4.97;;;;;;;-146.27;80.75;81546.59;5030580;28;20037;-71
2023/10/09 01:51:36;;;;;;;16.77;5.17;;;;;;;-146.27;80.97;81564.69;5019003;28;20029;-70
2023/10/09 01:54:02;;;;;;;13.50;4.75;;;;;;;-146.27;81.08;81588.78;5024141;28;20053;-71
2023/10/09 01:56:28;;;;;;;14.57;5.00;;;;;;;-146.27;80.82;81624.94;5022263;28;20085;-71
2023/10/09 01:58:57;;;;;;;10.32;5.63;;;;;;;-146.27;81.05;81596.81;5019941;28;20535;-71
2023/10/09 02:01:22;;;;;;;11.55;4.60;;;;;;;-146.27;81.00;81584.75;5020693;28;20021;-71
2023/10/09 02:03:51;;;;;;;10.90;4.60;;;;;;;-146.27;81.00;81546.59;5029334;28;20048;-71
2023/10/09 02:06:27;;;;;;;11.13;4.57;;;;;;;-146.27;80.86;81628.94;5020535;28;20077;-69
2023/10/09 02:08:53;;;;;;;11.10;4.35;;;;;;;-146.27;80.98;81572.72;5019610;28;20083;-67
2023/10/09 02:11:36;;;;;;;14.07;4.70;;;;;;;-146.27;81.07;81618.91;5022517;28;20488;-67
2023/10/09 02:14:05;;;;;;;20.15;5.63;;;;;;;-146.27;81.51;81641.00;5023351;28;20029;-69
2023/10/09 02:16:41;;;;;;;15.45;5.95;;;;;;;-146.27;81.59;81634.97;5030008;28;20034;-68
2023/10/09 02:19:08;;;;;;;10.02;4.50;;;;;;;-146.27;81.45;81632.97;5028774;28;20401;-68
2023/10/09 02:21:34;;;;;;;13.70;5.10;;;;;;;-146.27;81.49;81580.75;5025691;28;20107;-68
2023/10/09 02:24:12;;;;;;;9.90;4.50;;;;;;;-146.27;81.41;81588.78;5025286;28;20053;-68
2023/10/09 02:29:20;;;;;;;9.65;4.90;;;;;;;-146.27;80.94;81564.69;5029326;28;20508;-69
2023/10/09 02:31:51;;;;;;;14.18;4.88;;;;;;;-146.27;80.34;81536.56;5022526;28;20030;-68
2023/10/09 02:34:17;;;;;;;11.57;4.60;;;;;;;-146.27;80.11;81484.34;5024894;28;20068;-70
2023/10/09 02:36:42;;;;;;;7.93;4.47;;;;;;;-146.27;80.11;81536.56;5031529;28;20120;-68
2023/10/09 02:39:30;;;;;;;8.63;4.03;;;;;;;-146.27;79.80;81516.47;5026780;28;20501;-69
2023/10/09 02:44:51;;;;;;;9.38;4.72;;;;;;;-146.27;79.83;81516.47;5020691;28;20061;-67
2023/10/09 02:47:24;;;;;;;14.73;4.43;;;;;;;-146.27;79.64;81494.38;5029817;28;20068;-68
2023/10/09 02:49:51;;;;;;;10.02;4.70;;;;;;;-146.27;79.48;81518.50;5017171;28;20104;-68
2023/10/09 02:52:18;;;;;;;7.72;4.57;;;;;;;-146.27;79.37;81490.38;5025826;28;20061;-68
2023/10/09 02:54:47;;;;;;;9.55;4.18;;;;;;;-146.27;79.06;81470.28;5023253;28;20025;-68
2023/10/09 02:57:21;;;;;;;8.40;4.03;;;;;;;-146.27;79.11;81482.34;5019512;28;20068;-67
2023/10/09 02:59:47;;;;;;;11.50;4.88;;;;;;;-146.27;78.95;81460.25;5030084;28;20026;-69
2023/10/09 03:02:14;;;;;;;9.05;5.15;;;;;;;-146.27;79.52;81478.31;5027947;28;20568;-67
2023/10/09 03:04:41;;;;;;;8.75;4.25;;;;;;;-146.27;79.31;81544.59;5012740;28;20029;-68
2023/10/09 03:07:07;;;;;;;15.35;5.13;;;;;;;-146.27;79.31;81484.34;5018978;28;20029;-68
2023/10/09 03:09:34;;;;;;;15.35;5.00;;;;;;;-146.27;79.41;81488.38;5021893;28;20112;-68
2023/10/09 03:12:03;;;;;;;11.00;4.68;;;;;;;-146.27;79.54;81508.44;5022555;28;20497;-68
2023/10/09 03:14:38;;;;;;;11.30;4.80;;;;;;;-146.27;79.00;81434.13;5025936;28;20029;-68
2023/10/09 03:17:04;;;;;;;12.90;5.00;;;;;;;-146.27;78.51;81400.00;5021093;28;20037;-67
2023/10/09 03:19:37;;;;;;;10.63;4.60;;;;;;;-146.27;78.78;81428.09;5030202;28;20147;-68
2023/10/09 03:22:10;;;;;;;14.05;4.68;;;;;;;-146.27;78.74;81420.06;5026962;28;20029;-68
2023/10/09 03:24:41;;;;;;;11.65;5.30;;;;;;;-146.27;79.04;81468.28;5016547;28;20038;-68
2023/10/09 03:27:06;;;;;;;14.75;5.32;;;;;;;-146.27;78.64;81430.13;5015105;28;20504;-68
2023/10/09 03:29:33;;;;;;;14.93;4.45;;;;;;;-146.27;78.34;81434.13;5028084;28;20022;-68
2023/10/09 03:32:00;;;;;;;15.38;5.03;;;;;;;-146.27;79.15;81456.22;5030906;28;20039;-68
2023/10/09 03:34:25;;;;;;;18.02;4.97;;;;;;;-146.27;79.30;81468.28;5027783;28;20482;-67
2023/10/09 03:37:20;;;;;;;10.77;4.55;;;;;;;-146.27;79.68;81516.47;5021780;28;20032;-67
2023/10/09 03:39:47;;;;;;;10.80;4.60;;;;;;;-146.27;79.77;81488.38;5024108;28;20022;-67
2023/10/09 03:42:19;;;;;;;13.55;5.15;;;;;;;-146.27;78.92;81446.19;5029757;28;20087;-69
2023/10/09 03:44:53;;;;;;;11.95;4.50;;;;;;;-146.27;79.23;81452.22;5027951;28;20025;-69
2023/10/09 03:47:22;;;;;;;9.52;4.95;;;;;;;-146.27;79.72;81520.50;5028412;28;20040;-68
2023/10/09 03:49:54;;;;;;;12.95;5.32;;;;;;;-146.27;78.61;81400.00;5028267;28;20040;-68
2023/10/09 03:52:19;;;;;;;10.80;4.90;;;;;;;-146.27;78.85;81438.16;5029994;28;20490;-67
2023/10/09 03:54:49;;;;;;;18.70;5.38;;;;;;;-146.27;79.09;81476.31;5024157;28;20026;-68
2023/10/09 03:57:19;;;;;;;11.63;4.93;;;;;;;-146.27;78.68;81420.06;5018174;28;20044;-68
2023/10/09 03:59:48;;;;;;;11.88;4.43;;;;;;;-146.27;79.14;81448.19;5025380;28;20021;-67
2023/10/09 04:02:16;;;;;;;10.38;4.60;;;;;;;-146.27;78.53;81381.91;5028616;28;20065;-68
2023/10/09 04:04:46;;;;;;;11.10;5.15;;;;;;;-146.27;78.52;81379.91;5029365;28;20029;-68
2023/10/09 04:07:12;;;;;;;16.33;5.55;;;;;;;-146.27;78.24;81373.88;5023002;28;20033;-68
2023/10/09 04:09:44;;;;;;;13.75;5.25;;;;;;;-146.27;78.13;81379.91;5023050;28;20036;-68
2023/10/09 04:14:35;;;;;;;13.38;4.78;;;;;;;-146.27;78.73;81424.09;5015469;28;20046;-69
2023/10/09 04:17:06;;;;;;;13.02;5.57;;;;;;;-146.27;79.10;81456.22;5019332;28;20021;-68
2023/10/09 04:19:48;;;;;;;15.55;5.00;;;;;;;-146.27;78.55;81375.91;5015818;28;20018;-68
2023/10/09 04:22:27;;;;;;;11.63;5.20;;;;;;;-146.27;78.89;81383.94;5017838;28;20528;-68
2023/10/09 04:24:53;;;;;;;10.82;4.95;;;;;;;-146.27;78.63;81371.88;5019346;28;20045;-68
2023/10/09 04:27:26;;;;;;;11.70;4.97;;;;;;;-146.27;79.04;81428.09;5021153;28;20758;-68
2023/10/09 04:29:54;;;;;;;13.60;4.70;;;;;;;-146.27;79.65;81472.28;5020436;28;20022;-68
2023/10/09 04:32:19;;;;;;;17.77;6.05;;;;;;;-146.27;79.19;81432.13;5018424;28;20023;-68
2023/10/09 04:34:49;;;;;;;11.68;5.20;;;;;;;-146.27;78.96;81377.91;5026895;28;20494;-68
2023/10/09 04:40:10;;;;;;;9.93;5.25;;;;;;;-146.27;79.39;81416.06;5026787;28;20486;-68
2023/10/09 04:42:45;;;;;;;14.75;5.50;;;;;;;-146.27;79.20;81371.88;5027044;28;20025;-68
2023/10/09 04:47:37;;;;;;;12.93;4.82;;;;;;;-146.27;79.02;81404.00;5018764;28;20120;-68
2023/10/09 04:50:11;;;;;;;16.10;4.55;;;;;;;-146.27;79.50;81440.16;5025344;28;20083;-68
2023/10/09 04:57:45;;;;;;;17.33;5.25;;;;;;;-146.27;80.04;81462.25;5029220;28;20060;-68
2023/10/09 05:00:46;;;;;;;16.10;4.80;;;;;;;-146.27;79.37;81367.88;5024626;28;20022;-68
2023/10/09 05:03:13;;;;;;;8.68;4.50;;;;;;;-146.27;79.43;81416.06;5021040;28;20041;-68
2023/10/09 05:16:18;;;;;;;18.05;5.38;;;;;;;-146.27;78.46;81379.91;5024055;28;20449;-69
2023/10/09 05:19:05;;;;;;;15.75;5.15;;;;;;;-146.27;78.09;81343.75;5015231;28;20037;-68
2023/10/09 05:32:15;;;;;;;13.52;4.75;;;;;;;-146.27;77.06;81343.75;5013885;28;20542;-68
2023/10/09 05:37:33;;;;;;;14.27;5.18;;;;;;;-146.27;77.92;81393.97;5017917;28;20040;-70
2023/10/09 05:40:30;;;;;;;14.32;4.43;;;;;;;-146.27;77.63;81335.72;5027812;28;20607;-70
2023/10/09 05:42:59;;;;;;;13.10;5.30;;;;;;;-146.27;78.11;81404.00;5017111;28;20187;-70
2023/10/09 06:04:17;;;;;;;13.15;5.05;;;;;;;-146.27;77.81;81345.78;5023910;28;20036;-71
2023/10/09 06:06:44;;;;;;;12.38;5.22;;;;;;;-146.27;78.86;81400.00;5024846;28;20036;-72
2023/10/09 06:11:42;;;;;;;15.80;5.13;;;;;;;-146.27;78.31;81389.94;5023907;28;20129;-73
2023/10/09 06:19:08;;;;;;;10.02;4.80;;;;;;;-146.27;78.96;81371.88;5028114;28;20096;-69
2023/10/09 06:21:39;;;;;;;11.82;5.18;;;;;;;-146.27;79.42;81438.16;5025975;28;20040;-68
2023/10/09 06:24:14;;;;;;;15.55;5.00;;;;;;;-146.27;79.54;81426.09;5024055;28;20033;-66
2023/10/09 06:26:51;;;;;;;14.80;4.97;;;;;;;-146.27;79.13;81416.06;5024503;28;20453;-69
2023/10/09 06:29:30;;;;;;;21.00;5.40;;;;;;;-146.27;79.52;81420.06;5019400;28;20385;-69
2023/10/09 06:31:59;;;;;;;12.02;4.88;;;;;;;-146.27;79.06;81357.81;5016857;28;20025;-69
2023/10/09 06:34:35;;;;;;;12.20;4.82;;;;;;;-146.27;78.65;81363.84;5027174;28;20029;-68
2023/10/09 06:37:17;;;;;;;11.70;5.57;;;;;;;-146.27;79.03;81365.84;5018013;28;20490;-68
2023/10/09 06:44:59;;;;;;;18.33;5.53;;;;;;;-146.27;79.40;81369.88;5030163;28;20577;-69
2023/10/09 06:47:24;;;;;;;17.25;5.50;;;;;;;-146.27;79.17;81383.94;5013699;28;20026;-68
2023/10/09 06:50:24;;;;;;;13.35;4.95;;;;;;;-146.27;79.12;81315.66;5026849;28;20543;-69
2023/10/09 06:55:32;;;;;;;12.60;4.90;;;;;;;-146.27;78.83;81363.84;5013300;28;20047;-68
2023/10/09 06:58:01;;;;;;;12.32;5.10;;;;;;;-146.27;78.92;81325.69;5024666;28;20094;-69
2023/10/09 07:03:13;;;;;;;13.20;4.60;;;;;;;-146.27;78.93;81343.75;5024382;28;20040;-68
2023/10/09 07:06:00;;;;;;;13.07;5.35;;;;;;;-146.27;79.27;81335.72;5016755;28;20033;-68
2023/10/09 07:08:37;;;;;;;14.63;5.40;;;;;;;-146.27;78.99;81343.75;5021631;28;20041;-69
2023/10/09 07:11:22;;;;;;;9.40;5.20;;;;;;;-146.27;79.12;81383.94;5027082;28;20490;-69
2023/10/09 07:13:54;;;;;;;15.07;5.28;;;;;;;-146.27;79.43;81335.72;5020597;28;20060;-70
2023/10/09 07:16:28;;;;;;;15.48;5.07;;;;;;;-146.27;79.66;81369.88;5024982;28;20045;-70
2023/10/09 07:19:09;;;;;;;15.48;5.53;;;;;;;-146.27;79.69;81375.91;5016964;28;20049;-70
2023/10/09 07:21:35;;;;;;;12.40;5.03;;;;;;;-146.27;79.50;81359.81;5014997;28;20026;-70
2023/10/09 07:24:14;;;;;;;12.80;5.00;;;;;;;-146.27;80.30;81404.00;5029085;28;20389;-70
2023/10/09 07:26:47;;;;;;;11.82;4.93;;;;;;;-146.27;80.66;81428.09;5024800;28;20108;-70
2023/10/09 07:29:21;;;;;;;10.02;4.75;;;;;;;-146.27;80.56;81408.03;5027011;28;20480;-70
2023/10/09 07:31:56;;;;;;;9.15;4.50;;;;;;;-146.27;79.64;81355.81;5028678;28;20052;-70
2023/10/09 07:34:52;;;;;;;10.80;4.72;;;;;;;-146.27;79.99;81365.84;5013416;28;20025;-70
2023/10/09 07:37:09;;;;;;;10.45;4.65;;;;;;;-146.27;79.46;81289.53;5020261;28;20129;-70
2023/10/09 07:39:34;;;;;;;15.40;5.07;;;;;;;-146.27;79.56;81307.63;5028178;28;20014;-70
2023/10/09 07:42:15;;;;;;;14.13;4.80;;;;;;;-146.27;79.56;81323.69;5022825;28;20370;-71
2023/10/09 07:44:52;;;;;;;12.10;4.68;;;;;;;-146.27;79.74;81383.94;5010451;28;20064;-70
2023/10/09 07:48:05;;;;;;;10.65;4.50;;;;;;;-146.27;79.61;81371.88;5010920;28;20022;-69
2023/10/09 07:50:04;;;;;;;17.33;5.25;;;;;;;-146.27;79.34;81383.94;5025559;28;20095;-70
2023/10/09 07:52:30;;;;;;;13.90;4.45;;;;;;;-146.27;79.45;81339.75;5026142;28;20432;-70
2023/10/09 07:55:02;;;;;;;12.13;4.55;;;;;;;-146.27;79.14;81305.59;5027338;28;20025;-69
2023/10/09 07:57:38;;;;;;;10.85;4.45;;;;;;;-146.27;78.51;81279.50;5029985;28;20029;-70
2023/10/09 08:00:36;;;;;;;8.63;4.53;;;;;;;-146.27;78.12;81281.50;5024952;28;20108;-70
2023/10/09 08:03:00;;;;;;;11.45;4.97;;;;;;;-146.27;77.75;81267.44;5015566;28;20041;-70
2023/10/09 08:05:33;;;;;;;9.05;4.50;;;;;;;-146.27;77.44;81235.31;5015595;28;20029;-70
2023/10/09 08:08:18;;;;;;;13.70;5.28;;;;;;;-146.27;76.82;81197.16;5016242;28;20040;-69
2023/10/09 08:11:41;;;;;;;14.10;5.53;;;;;;;-146.27;76.58;81197.16;5020914;28;20029;-70
2023/10/09 08:16:24;;;;;;;13.57;4.55;;;;;;;-146.27;76.29;81138.91;5036366;28;20045;-70
2023/10/09 08:18:51;;;;;;;13.50;4.30;;;;;;;-146.27;76.27;81146.97;5014117;28;20040;-69
2023/10/09 08:23:49;;;;;;;14.18;5.78;;;;;;;-146.27;76.68;81155.00;5014232;28;20144;-70
2023/10/09 08:26:28;;;;;;;11.80;4.65;;;;;;;-146.27;76.25;81126.88;5024578;28;20104;-69
2023/10/09 08:28:54;;;;;;;10.73;4.68;;;;;;;-146.27;75.85;81050.56;5033497;28;20068;-70
2023/10/09 08:31:45;;;;;;;13.68;4.30;;;;;;;-146.27;76.59;81146.97;5032652;28;20132;-70
2023/10/09 08:34:23;;;;;;;9.48;4.93;;;;;;;-146.27;75.66;81042.53;5013737;28;20033;-71
2023/10/09 08:36:52;;;;;;;11.40;4.75;;;;;;;-146.27;75.36;81004.38;5013726;28;20032;-70
2023/10/09 08:39:25;;;;;;;14.23;4.78;;;;;;;-146.27;74.89;80970.25;5013544;28;20026;-70
2023/10/09 08:41:53;;;;;;;22.60;5.97;;;;;;;-146.27;74.80;81074.66;5013302;28;20417;-70
2023/10/09 08:44:25;;;;;;;8.93;3.78;;;;;;;-146.27;74.89;81056.59;5013467;28;20501;-70
2023/10/09 08:46:51;;;;;;;11.65;5.05;;;;;;;-146.27;74.69;81092.72;5013225;28;20041;-70
2023/10/09 08:49:17;;;;;;;10.68;4.85;;;;;;;-146.27;74.27;81044.53;5013507;28;20532;-70
2023/10/09 08:51:46;;;;;;;11.07;4.45;;;;;;;-146.27;73.56;80996.34;5016260;28;20055;-70
2023/10/09 08:54:14;;;;;;;13.50;4.80;;;;;;;-146.27;73.16;80990.31;5032273;28;20470;-70
2023/10/09 08:56:49;;;;;;;11.20;5.00;;;;;;;-146.27;72.85;81014.41;5032200;28;20091;-70
2023/10/09 08:59:24;;;;;;;11.27;4.45;;;;;;;-146.27;72.75;80996.34;5032266;28;20029;-70
2023/10/09 09:01:52;;;;;;;12.57;4.00;;;;;;;-146.27;72.47;80889.91;5018475;28;20022;-71
2023/10/09 09:04:40;;;;;;;14.50;4.53;;;;;;;-146.27;72.77;80910.00;5013023;28;20030;-70
2023/10/09 09:07:22;;;;;;;16.58;5.03;;;;;;;-146.27;72.41;80889.91;5026416;28;20057;-68
2023/10/09 09:10:21;;;;;;;10.13;4.03;;;;;;;-146.27;71.64;80813.59;5013097;28;20049;-68
2023/10/09 09:12:53;;;;;;;12.48;4.45;;;;;;;-146.27;71.36;80833.69;5030165;28;20200;-68
2023/10/09 09:15:20;;;;;;;11.32;4.38;;;;;;;-146.27;71.47;80897.94;5032908;28;20440;-68
2023/10/09 09:17:48;;;;;;;10.88;4.07;;;;;;;-146.27;71.93;80952.16;5023395;28;20029;-67
2023/10/09 09:20:28;;;;;;;12.25;3.92;;;;;;;-146.27;72.06;80905.97;5030241;28;20543;-67
2023/10/09 09:22:57;;;;;;;7.68;3.75;;;;;;;-146.27;71.75;80897.94;5032452;28;20474;-66
2023/10/09 09:25:31;;;;;;;10.40;4.20;;;;;;;-146.27;71.50;80843.72;5032757;28;20040;-67
2023/10/09 09:27:59;;;;;;;9.48;3.85;;;;;;;-146.27;71.52;80837.72;5012782;28;20162;-67
2023/10/09 09:30:31;;;;;;;12.07;4.10;;;;;;;-146.27;71.94;80853.78;5014470;28;20017;-68
2023/10/09 09:33:20;;;;;;;11.17;4.27;;;;;;;-146.27;72.47;80881.88;5012717;28;20026;-67
2023/10/09 09:36:03;;;;;;;9.80;3.80;;;;;;;-146.27;71.94;80829.69;5014539;28;20033;-67
2023/10/09 09:38:47;;;;;;;9.55;4.55;;;;;;;-146.27;71.80;80899.97;5029921;28;20022;-67
2023/10/09 09:41:23;;;;;;;10.80;4.38;;;;;;;-146.27;71.65;80855.78;5023087;28;20025;-67
2023/10/09 09:43:52;;;;;;;9.98;4.10;;;;;;;-146.27;70.97;80821.63;5013205;28;20511;-68
2023/10/09 09:46:18;;;;;;;8.90;3.90;;;;;;;-146.27;71.47;80809.59;5022194;28;20087;-67
2023/10/09 09:48:45;;;;;;;12.50;4.65;;;;;;;-146.27;72.23;80950.16;5026812;28;20430;-67
2023/10/09 09:51:14;;;;;;;13.25;5.40;;;;;;;-146.27;72.55;80966.22;5016061;28;20026;-67
2023/10/09 09:53:40;;;;;;;9.90;4.15;;;;;;;-146.27;71.71;80829.69;5012673;28;20498;-68
2023/10/09 09:56:06;;;;;;;8.98;4.32;;;;;;;-146.27;71.66;80797.53;5019659;28;20100;-67
2023/10/09 09:58:42;;;;;;;9.52;4.32;;;;;;;-146.27;71.91;80845.75;5012342;28;20533;-68
2023/10/09 10:01:24;;;;;;;14.00;4.45;;;;;;;-146.27;71.07;80849.75;5021339;28;20097;-66
2023/10/09 10:04:20;;;;;;;12.93;4.40;;;;;;;-146.27;71.23;80821.63;5026816;28;20076;-68
2023/10/09 10:06:50;;;;;;;12.00;4.50;;;;;;;-146.27;71.42;80827.66;5025440;28;20025;-67
2023/10/09 10:09:40;;;;;;;11.65;4.97;;;;;;;-146.27;72.00;80829.69;5015214;28;20032;-67
2023/10/09 10:12:14;;;;;;;18.05;4.30;;;;;;;-146.27;71.76;80797.53;5019548;28;20044;-68
2023/10/09 10:14:59;;;;;;;11.15;5.30;;;;;;;-146.27;71.37;80697.16;5017736;28;20042;-67
2023/10/09 10:17:30;;;;;;;11.32;3.88;;;;;;;-146.27;70.46;80636.91;5024127;28;20400;-69
2023/10/09 10:22:47;;;;;;;11.05;4.07;;;;;;;-146.27;70.42;80707.19;5031490;28;20095;-70
2023/10/09 10:25:41;;;;;;;11.40;4.60;;;;;;;-146.27;70.19;80685.09;5030521;28;20584;-72
2023/10/09 10:28:28;;;;;;;7.50;4.00;;;;;;;-146.27;70.14;80562.63;5018390;28;20037;-68
2023/10/09 10:30:54;;;;;;;9.80;4.40;;;;;;;-146.27;69.54;80508.41;5018543;28;20138;-68
2023/10/09 10:33:22;;;;;;;12.27;4.30;;;;;;;-146.27;69.59;80564.63;5026653;28;20096;-68
2023/10/09 10:35:52;;;;;;;9.65;3.95;;;;;;;-146.27;69.45;80584.69;5021609;28;20079;-68
2023/10/09 10:38:34;;;;;;;12.77;4.40;;;;;;;-146.27;69.23;80552.56;5027586;28;20030;-67
2023/10/09 10:41:11;;;;;;;12.82;4.45;;;;;;;-146.27;68.99;80534.50;5029300;28;20028;-68
2023/10/09 10:46:15;;;;;;;9.75;4.50;;;;;;;-146.27;68.88;80604.78;5019894;28;20041;-68
2023/10/09 10:48:47;;;;;;;11.52;4.40;;;;;;;-146.27;68.10;80436.13;5026650;28;20025;-68
2023/10/09 10:51:15;;;;;;;13.82;4.07;;;;;;;-146.27;67.85;80369.88;5030780;28;20079;-68
2023/10/09 10:54:26;;;;;;;12.63;4.10;;;;;;;-146.27;67.24;80251.41;5043309;28;20040;-68
2023/10/09 10:56:39;;;;;;;8.38;4.28;;;;;;;-146.27;66.20;80181.13;5018227;28;20046;-68
2023/10/09 11:01:50;;;;;;;6.53;3.95;;;;;;;-146.27;65.67;80191.16;5014998;28;20034;-68
2023/10/09 11:07:24;;;;;;;9.27;3.72;;;;;;;-146.27;63.64;80243.38;5017206;28;20029;-70
2023/10/09 11:18:16;;;;;;;13.70;4.32;;;;;;;-146.27;64.87;80275.50;5020724;28;20493;-68
2023/10/09 11:20:56;;;;;;;17.80;4.28;;;;;;;-146.27;64.12;80151.03;5017161;28;20022;-68
2023/10/09 11:26:25;;;;;;;13.80;4.22;;;;;;;-146.27;62.81;79994.41;5030608;28;20037;-67
2023/10/09 11:29:14;;;;;;;10.68;3.85;;;;;;;-146.27;62.19;79869.94;5024119;28;20018;-68
2023/10/09 11:32:05;;;;;;;9.75;4.13;;;;;;;-146.27;62.18;79918.13;5021470;28;20025;-68
2023/10/09 11:34:31;;;;;;;9.73;3.92;;;;;;;-146.27;62.16;79972.34;5028018;28;20017;-68
2023/10/09 11:37:13;;;;;;;8.40;4.25;;;;;;;-146.27;61.97;79972.34;5016857;28;20378;-68
2023/10/09 11:39:51;;;;;;;10.25;3.92;;;;;;;-146.27;62.34;80052.66;5017160;28;20116;-68
2023/10/09 11:42:36;;;;;;;11.60;4.40;;;;;;;-146.27;62.73;80110.88;5014570;28;20034;-68
2023/10/09 11:45:31;;;;;;;12.30;3.92;;;;;;;-146.27;63.04;80159.06;5016385;28;20029;-68
2023/10/09 11:47:58;;;;;;;15.90;4.57;;;;;;;-146.27;63.66;80259.44;5026030;28;20025;-67
2023/10/09 11:51:18;;;;;;;11.25;4.55;;;;;;;-146.27;65.26;80367.84;5036667;28;20021;-67
2023/10/09 11:53:45;;;;;;;9.38;4.22;;;;;;;-146.27;66.42;80520.44;5033116;28;20120;-68
2023/10/09 11:56:14;;;;;;;15.90;4.20;;;;;;;-146.27;66.83;80516.44;5043146;28;20051;-68
2023/10/09 11:58:40;;;;;;;12.73;4.22;;;;;;;-146.27;66.92;80472.25;5036106;28;20052;-68
2023/10/09 12:01:17;;;;;;;9.25;4.32;;;;;;;-146.27;67.10;80484.31;5019875;28;20482;-68
2023/10/09 12:03:44;;;;;;;8.75;4.28;;;;;;;-146.27;67.07;80476.28;5045139;28;20025;-67
2023/10/09 12:06:12;;;;;;;16.80;4.28;;;;;;;-146.27;67.93;80582.69;5035858;28;20116;-67
2023/10/09 12:08:40;;;;;;;9.48;3.97;;;;;;;-146.27;68.01;80570.66;5039016;28;20068;-68
2023/10/09 12:11:09;;;;;;;11.75;4.32;;;;;;;-146.27;67.94;80584.69;5042995;28;20450;-68
2023/10/09 12:13:35;;;;;;;13.15;4.93;;;;;;;-146.27;67.85;80538.53;5029348;28;20067;-67
2023/10/09 12:16:00;;;;;;;12.73;4.60;;;;;;;-146.27;67.28;80480.28;5020138;28;20045;-67
2023/10/09 12:18:28;;;;;;;12.68;4.68;;;;;;;-146.27;67.05;80351.78;5036859;28;20169;-67
2023/10/09 12:21:02;;;;;;;8.32;4.03;;;;;;;-146.27;65.79;80118.91;5028803;28;20032;-67
2023/10/09 12:23:28;;;;;;;11.50;4.35;;;;;;;-146.27;63.79;80062.69;5034548;28;20083;-67
2023/10/09 12:25:56;;;;;;;11.20;4.85;;;;;;;-146.27;62.42;80064.69;5045425;28;20112;-68
2023/10/09 12:28:22;;;;;;;11.70;4.65;;;;;;;-146.27;62.57;80070.72;5036095;28;20392;-67
2023/10/09 12:30:52;;;;;;;9.70;4.57;;;;;;;-146.27;62.64;80010.47;5039668;28;20127;-67
2023/10/09 12:33:19;;;;;;;13.27;4.28;;;;;;;-146.27;62.76;80046.63;5032583;28;20141;-67
2023/10/09 12:35:45;;;;;;;8.35;4.18;;;;;;;-146.27;63.00;80169.09;5020634;28;20090;-66
2023/10/09 12:38:12;;;;;;;14.43;4.55;;;;;;;-146.27;63.85;80213.25;5028806;28;20346;-66
2023/10/09 12:40:40;;;;;;;10.25;4.10;;;;;;;-146.27;65.17;80402.00;5039225;28;20410;-66
2023/10/09 12:43:15;;;;;;;16.02;5.22;;;;;;;-146.27;65.52;80367.84;5035345;28;20132;-66
2023/10/09 12:45:45;;;;;;;13.38;4.75;;;;;;;-146.27;65.67;80363.84;5045503;28;20205;-66
2023/10/09 12:48:10;;;;;;;16.17;4.25;;;;;;;-146.27;66.10;80432.09;5032472;28;20025;-66
2023/10/09 12:50:45;;;;;;;13.88;4.13;;;;;;;-146.27;65.83;80448.16;5036217;28;20677;-66
2023/10/09 12:53:11;;;;;;;13.20;4.40;;;;;;;-146.27;65.87;80428.09;5032591;28;20497;-65
2023/10/09 12:55:41;;;;;;;12.55;4.68;;;;;;;-146.27;66.25;80528.47;5039351;28;20421;-66
2023/10/09 12:58:08;;;;;;;9.57;4.85;;;;;;;-146.27;66.73;80576.66;5044204;28;20021;-66
2023/10/09 13:00:44;;;;;;;10.82;4.68;;;;;;;-146.27;66.32;80500.38;5042667;28;20033;-66
2023/10/09 13:03:18;;;;;;;13.38;4.38;;;;;;;-146.27;66.74;80448.16;5038260;28;20112;-66
2023/10/09 13:05:51;;;;;;;13.60;4.70;;;;;;;-146.27;66.32;80408.00;5049205;28;20050;-64
2023/10/09 13:08:21;;;;;;;15.55;5.38;;;;;;;-146.27;66.25;80434.13;5037163;28;20036;-68
2023/10/09 13:11:00;;;;;;;12.77;4.57;;;;;;;-146.27;66.59;80480.28;5022380;28;20128;-68
2023/10/09 13:13:39;;;;;;;12.73;4.75;;;;;;;-146.27;66.34;80492.34;5042506;28;20025;-67
2023/10/09 13:16:06;;;;;;;14.35;5.28;;;;;;;-146.27;66.71;80508.41;5030203;28;20049;-67
2023/10/09 13:18:32;;;;;;;12.88;4.57;;;;;;;-146.27;66.34;80524.47;5043490;28;20096;-68
2023/10/09 13:20:57;;;;;;;11.10;4.53;;;;;;;-146.27;66.63;80544.53;5043640;28;20476;-68
2023/10/09 13:23:33;;;;;;;14.20;4.85;;;;;;;-146.27;66.49;80512.41;5033311;28;20040;-67
2023/10/09 13:26:06;;;;;;;17.08;4.47;;;;;;;-146.27;66.95;80402.00;5021524;28;20029;-67
2023/10/09 13:28:31;;;;;;;13.02;5.32;;;;;;;-146.27;67.53;80534.50;5025482;28;20060;-67
2023/10/09 13:30:57;;;;;;;9.80;4.63;;;;;;;-146.27;67.83;80544.53;5025938;28;20121;-67
2023/10/09 13:33:22;;;;;;;11.43;4.85;;;;;;;-146.27;67.61;80564.63;5032440;28;20116;-67